createdAt,value
2022-10-30T00:01:53.804Z,100.00
2022-10-30T00:04:20.401Z,100.00
2022-10-30T00:06:48.495Z,100.00
2022-10-30T00:09:15.048Z,100.00
2022-10-30T00:11:41.935Z,100.00
2022-10-30T00:14:08.865Z,100.00
2022-10-30T00:16:35.393Z,100.00
2022-10-30T00:19:01.888Z,100.00
2022-10-30T00:21:28.383Z,100.00
2022-10-30T00:23:54.902Z,100.00
2022-10-30T00:26:22.228Z,100.00
2022-10-30T00:28:53.302Z,100.00
2022-10-30T00:31:19.855Z,100.00
2022-10-30T00:33:50.940Z,100.00
2022-10-30T00:36:17.411Z,100.00
2022-10-30T00:38:43.944Z,100.00
2022-10-30T00:41:15.679Z,100.00
2022-10-30T00:43:42.206Z,100.00
2022-10-30T00:46:19.211Z,100.00
2022-10-30T00:48:49.474Z,100.00
2022-10-30T00:51:15.986Z,100.00
2022-10-30T00:53:43.059Z,100.00
2022-10-30T00:56:11.677Z,100.00
2022-10-30T00:58:43.073Z,100.00
2022-10-30T01:01:13.829Z,100.00
2022-10-30T01:03:40.782Z,100.00
2022-10-30T01:06:10.209Z,100.00
2022-10-30T01:08:37.527Z,100.00
2022-10-30T01:11:04.822Z,100.00
2022-10-30T01:13:32.430Z,100.00
2022-10-30T01:16:10.321Z,100.00
2022-10-30T01:18:42.887Z,100.00
2022-10-30T01:21:16.786Z,100.00
2022-10-30T01:24:14.872Z,100.00
2022-10-30T01:26:44.341Z,100.00
2022-10-30T01:29:22.189Z,100.00
2022-10-30T01:32:16.478Z,100.00
2022-10-30T01:34:49.766Z,100.00
2022-10-30T01:37:20.899Z,100.00
2022-10-30T01:39:47.371Z,100.00
2022-10-30T01:42:46.381Z,100.00
2022-10-30T01:45:27.282Z,100.00
2022-10-30T01:48:11.805Z,100.00
2022-10-30T01:51:08.740Z,100.00
2022-10-30T01:54:04.416Z,100.00
2022-10-30T01:56:44.898Z,100.00
2022-10-30T01:59:17.057Z,100.00
2022-10-30T02:01:44.080Z,100.00
2022-10-30T02:04:12.411Z,100.00
2022-10-30T02:06:39.214Z,100.00
2022-10-30T02:09:05.800Z,100.00
2022-10-30T02:11:33.541Z,100.00
2022-10-30T02:14:02.912Z,100.00
2022-10-30T02:16:29.427Z,100.00
2022-10-30T02:18:55.885Z,100.00
2022-10-30T02:21:22.382Z,100.00
2022-10-30T02:23:48.840Z,100.00
2022-10-30T02:26:15.355Z,100.00
2022-10-30T02:28:41.814Z,100.00
2022-10-30T02:31:08.396Z,100.00
2022-10-30T02:33:34.907Z,100.00
2022-10-30T02:36:01.395Z,100.00
2022-10-30T02:38:27.850Z,100.00
2022-10-30T02:40:54.632Z,100.00
2022-10-30T02:43:21.112Z,100.00
2022-10-30T02:45:51.146Z,100.00
2022-10-30T02:48:17.624Z,100.00
2022-10-30T02:50:44.096Z,100.00
2022-10-30T02:53:10.604Z,100.00
2022-10-30T02:55:37.075Z,100.00
2022-10-30T02:58:03.554Z,100.00
2022-10-30T03:00:30.029Z,100.00
2022-10-30T03:02:57.238Z,100.00
2022-10-30T03:05:24.445Z,100.00
2022-10-30T03:07:51.470Z,100.00
2022-10-30T03:10:18.382Z,100.00
2022-10-30T03:12:44.873Z,100.00
2022-10-30T03:15:11.347Z,100.00
2022-10-30T03:17:37.885Z,100.00
2022-10-30T03:20:04.619Z,100.00
2022-10-30T03:22:31.097Z,100.00
2022-10-30T03:24:57.558Z,100.00
2022-10-30T03:27:24.070Z,100.00
2022-10-30T03:29:50.533Z,100.00
2022-10-30T03:32:17.057Z,100.00
2022-10-30T03:34:43.546Z,100.00
2022-10-30T03:37:10.010Z,100.00
2022-10-30T03:39:36.460Z,100.00
2022-10-30T03:42:02.945Z,100.00
2022-10-30T03:44:29.473Z,100.00
2022-10-30T03:46:55.982Z,100.00
2022-10-30T03:49:22.478Z,100.00
2022-10-30T03:51:48.962Z,100.00
2022-10-30T03:54:15.427Z,100.00
2022-10-30T03:56:41.928Z,100.00
2022-10-30T03:59:08.457Z,100.00
2022-10-30T04:01:35.056Z,100.00
2022-10-30T04:04:01.658Z,100.00
2022-10-30T04:06:28.131Z,100.00
2022-10-30T04:08:55.303Z,100.00
2022-10-30T04:11:21.833Z,100.00
2022-10-30T04:13:48.336Z,100.00
2022-10-30T04:16:14.838Z,100.00
2022-10-30T04:18:41.300Z,100.00
2022-10-30T04:21:07.789Z,100.00
2022-10-30T04:23:34.259Z,100.00
2022-10-30T04:26:01.793Z,100.00
2022-10-30T04:28:28.350Z,100.00
2022-10-30T04:30:54.886Z,100.00
2022-10-30T04:33:21.393Z,100.00
2022-10-30T04:35:47.862Z,100.00
2022-10-30T04:38:15.222Z,100.00
2022-10-30T04:40:43.338Z,100.00
2022-10-30T04:43:10.452Z,100.00
2022-10-30T04:45:37.397Z,100.00
2022-10-30T04:48:24.073Z,100.00
2022-10-30T04:50:50.545Z,100.00
2022-10-30T04:53:18.640Z,100.00
2022-10-30T04:55:45.174Z,100.00
2022-10-30T04:58:12.269Z,100.00
2022-10-30T05:00:39.147Z,100.00
2022-10-30T05:03:05.617Z,100.00
2022-10-30T05:05:32.450Z,100.00
2022-10-30T05:07:59.256Z,100.00
2022-10-30T05:10:26.146Z,100.00
2022-10-30T05:12:53.821Z,100.00
2022-10-30T05:15:20.496Z,100.00
2022-10-30T05:17:51.358Z,100.00
2022-10-30T05:20:18.974Z,100.00
2022-10-30T05:22:45.736Z,100.00
2022-10-30T05:25:12.204Z,100.00
2022-10-30T05:27:38.689Z,100.00
2022-10-30T05:30:05.585Z,100.00
2022-10-30T05:32:32.064Z,100.00
2022-10-30T05:34:58.542Z,100.00
2022-10-30T05:37:25.121Z,100.00
2022-10-30T05:39:51.573Z,100.00
2022-10-30T05:42:18.146Z,100.00
2022-10-30T05:45:00.515Z,100.00
2022-10-30T05:47:27.605Z,100.00
2022-10-30T05:49:54.052Z,100.00
2022-10-30T05:52:20.542Z,100.00
2022-10-30T05:54:47.028Z,100.00
2022-10-30T05:57:13.502Z,100.00
2022-10-30T05:59:40.006Z,100.00
2022-10-30T06:02:06.536Z,100.00
2022-10-30T06:04:33.170Z,100.00
2022-10-30T06:06:59.635Z,100.00
2022-10-30T06:09:26.115Z,100.00
2022-10-30T06:11:53.529Z,100.00
2022-10-30T06:14:20.018Z,100.00
2022-10-30T06:16:46.518Z,100.00
2022-10-30T06:19:17.432Z,100.00
2022-10-30T06:21:45.834Z,100.00
2022-10-30T06:24:12.683Z,100.00
2022-10-30T06:26:39.199Z,100.00
2022-10-30T06:29:05.831Z,100.00
2022-10-30T06:31:32.433Z,100.00
2022-10-30T06:33:58.899Z,100.00
2022-10-30T06:36:25.391Z,100.00
2022-10-30T06:38:51.880Z,100.00
2022-10-30T06:41:18.450Z,100.00
2022-10-30T06:43:44.896Z,100.00
2022-10-30T06:46:11.464Z,100.00
2022-10-30T06:48:37.940Z,100.00
2022-10-30T06:51:04.464Z,100.00
2022-10-30T06:53:30.938Z,100.00
2022-10-30T06:55:59.176Z,100.00
2022-10-30T06:58:25.921Z,100.00
2022-10-30T07:00:52.450Z,100.00
2022-10-30T07:03:18.958Z,100.00
2022-10-30T07:05:45.441Z,100.00
2022-10-30T07:08:12.036Z,100.00
2022-10-30T07:10:38.746Z,100.00
2022-10-30T07:13:05.208Z,100.00
2022-10-30T07:15:31.699Z,100.00
2022-10-30T07:18:00.835Z,100.00
2022-10-30T07:20:29.554Z,100.00
2022-10-30T07:22:56.094Z,100.00
2022-10-30T07:25:22.615Z,100.00
2022-10-30T07:27:51.456Z,100.00
2022-10-30T07:30:19.930Z,100.00
2022-10-30T07:32:46.505Z,100.00
2022-10-30T07:35:14.368Z,100.00
2022-10-30T07:37:40.901Z,100.00
2022-10-30T07:40:12.455Z,100.00
2022-10-30T07:42:39.664Z,100.00
2022-10-30T07:45:06.604Z,100.00
2022-10-30T07:47:33.132Z,100.00
2022-10-30T07:49:59.607Z,100.00
2022-10-30T07:52:26.143Z,100.00
2022-10-30T07:54:52.615Z,100.00
2022-10-30T07:57:19.150Z,100.00
2022-10-30T07:59:45.638Z,100.00
2022-10-30T08:02:12.303Z,100.00
2022-10-30T08:04:38.917Z,100.00
2022-10-30T08:07:05.404Z,100.00
2022-10-30T08:09:31.878Z,100.00
2022-10-30T08:11:58.394Z,100.00
2022-10-30T08:14:25.185Z,100.00
2022-10-30T08:16:53.183Z,100.00
2022-10-30T08:19:19.689Z,100.00
2022-10-30T08:21:46.158Z,100.00
2022-10-30T08:24:13.473Z,100.00
2022-10-30T08:26:39.996Z,100.00
2022-10-30T08:29:06.874Z,100.00
2022-10-30T08:31:33.359Z,100.00
2022-10-30T08:33:59.994Z,100.00
2022-10-30T08:36:26.486Z,100.00
2022-10-30T08:38:53.065Z,100.00
2022-10-30T08:41:19.556Z,100.00
2022-10-30T08:43:46.004Z,100.00
2022-10-30T08:46:12.461Z,100.00
2022-10-30T08:48:39.692Z,100.00
2022-10-30T08:51:07.085Z,100.00
2022-10-30T08:53:33.584Z,100.00
2022-10-30T08:56:00.043Z,100.00
2022-10-30T08:58:26.509Z,100.00
2022-10-30T09:00:57.214Z,100.00
2022-10-30T09:03:26.759Z,100.00
2022-10-30T09:05:53.299Z,100.00
2022-10-30T09:08:19.935Z,100.00
2022-10-30T09:10:46.587Z,100.00
2022-10-30T09:13:13.163Z,100.00
2022-10-30T09:15:39.642Z,100.00
2022-10-30T09:18:06.192Z,100.00
2022-10-30T09:20:32.745Z,100.00
2022-10-30T09:22:59.625Z,100.00
2022-10-30T09:25:26.387Z,100.00
2022-10-30T09:27:52.942Z,100.00
2022-10-30T09:30:19.740Z,100.00
2022-10-30T09:32:48.933Z,100.00
2022-10-30T09:35:17.681Z,100.00
2022-10-30T09:37:44.214Z,100.00
2022-10-30T09:40:17.284Z,100.00
2022-10-30T09:42:46.059Z,100.00
2022-10-30T09:45:30.484Z,100.00
2022-10-30T09:48:15.637Z,100.00
2022-10-30T09:50:55.900Z,100.00
2022-10-30T09:53:27.771Z,100.00
2022-10-30T09:56:08.613Z,100.00
2022-10-30T09:58:53.243Z,100.00
2022-10-30T10:01:27.986Z,100.00
2022-10-30T10:04:27.442Z,100.00
2022-10-30T10:07:01.507Z,100.00
2022-10-30T10:09:30.249Z,100.00
2022-10-30T10:12:05.614Z,100.00
2022-10-30T10:14:39.870Z,100.00
2022-10-30T10:17:12.026Z,100.00
2022-10-30T10:19:49.181Z,100.00
2022-10-30T10:22:51.206Z,100.00
2022-10-30T10:25:19.650Z,100.00
2022-10-30T10:28:12.100Z,100.00
2022-10-30T10:30:54.744Z,100.00
2022-10-30T10:33:24.491Z,100.00
2022-10-30T10:36:10.068Z,100.00
2022-10-30T10:39:06.288Z,100.00
2022-10-30T10:41:49.706Z,100.00
2022-10-30T10:44:41.041Z,100.00
2022-10-30T10:47:26.278Z,100.00
2022-10-30T10:50:13.984Z,100.00
2022-10-30T10:52:54.180Z,100.00
2022-10-30T10:55:27.940Z,100.00
2022-10-30T10:58:01.828Z,100.00
2022-10-30T11:00:29.443Z,100.00
2022-10-30T11:03:46.002Z,100.00
2022-10-30T11:06:26.738Z,100.00
2022-10-30T11:09:14.341Z,100.00
2022-10-30T11:11:40.848Z,100.00
2022-10-30T11:14:21.761Z,100.00
2022-10-30T11:16:53.006Z,100.00
2022-10-30T11:19:22.563Z,100.00
2022-10-30T11:21:51.807Z,100.00
2022-10-30T11:24:31.406Z,100.00
2022-10-30T11:27:19.257Z,100.00
2022-10-30T11:29:57.521Z,99.46
2022-10-30T11:32:31.405Z,99.11
2022-10-30T11:35:09.990Z,98.85
2022-10-30T11:37:38.640Z,98.11
2022-10-30T11:40:21.219Z,97.41
2022-10-30T11:43:03.096Z,96.67
2022-10-30T11:45:34.611Z,95.17
2022-10-30T11:48:03.032Z,92.36
2022-10-30T11:50:31.987Z,90.42
2022-10-30T11:53:01.726Z,89.84
2022-10-30T11:55:45.534Z,89.08
2022-10-30T11:58:20.421Z,88.63
2022-10-30T12:00:59.170Z,87.93
2022-10-30T12:03:38.420Z,87.28
2022-10-30T12:06:21.120Z,87.88
2022-10-30T12:09:01.759Z,86.49
2022-10-30T12:11:30.860Z,83.97
2022-10-30T12:13:57.627Z,81.24
2022-10-30T12:16:24.252Z,79.53
2022-10-30T12:19:05.253Z,76.94
2022-10-30T12:21:37.896Z,76.03
2022-10-30T12:24:07.426Z,75.37
2022-10-30T12:26:35.314Z,74.44
2022-10-30T12:29:04.740Z,74.43
2022-10-30T12:31:35.604Z,74.91
2022-10-30T12:34:23.500Z,75.18
2022-10-30T12:37:17.829Z,74.06
2022-10-30T12:39:46.173Z,74.15
2022-10-30T12:42:15.250Z,73.18
2022-10-30T12:44:52.063Z,72.82
2022-10-30T12:47:46.097Z,71.90
2022-10-30T12:50:31.109Z,71.21
2022-10-30T12:53:02.276Z,73.13
2022-10-30T12:55:35.867Z,71.92
2022-10-30T12:58:09.269Z,71.68
2022-10-30T13:00:48.860Z,70.98
2022-10-30T13:03:35.568Z,70.79
2022-10-30T13:06:17.002Z,69.05
2022-10-30T13:09:05.349Z,67.92
2022-10-30T13:11:52.854Z,67.52
2022-10-30T13:14:21.134Z,67.22
2022-10-30T13:16:47.774Z,67.80
2022-10-30T13:19:14.419Z,68.46
2022-10-30T13:21:53.546Z,67.91
2022-10-30T13:24:32.151Z,66.97
2022-10-30T13:27:17.922Z,67.01
2022-10-30T13:30:08.554Z,66.13
2022-10-30T13:32:41.932Z,66.02
2022-10-30T13:35:20.470Z,65.60
2022-10-30T13:37:50.041Z,64.76
2022-10-30T13:40:23.670Z,64.77
2022-10-30T13:43:15.397Z,64.42
2022-10-30T13:45:55.947Z,64.07
2022-10-30T13:48:42.149Z,64.33
2022-10-30T13:51:17.439Z,64.00
2022-10-30T13:53:46.202Z,64.96
2022-10-30T13:56:16.464Z,64.31
2022-10-30T13:59:08.016Z,63.69
2022-10-30T14:01:43.824Z,63.49
2022-10-30T14:04:20.145Z,63.95
2022-10-30T14:06:57.753Z,64.57
2022-10-30T14:09:44.465Z,64.94
2022-10-30T14:12:42.013Z,65.52
2022-10-30T14:15:19.503Z,66.30
2022-10-30T14:18:14.067Z,67.91
2022-10-30T14:23:35.826Z,70.41
2022-10-30T14:26:11.500Z,72.28
2022-10-30T14:28:46.915Z,74.31
2022-10-30T14:31:16.632Z,76.51
2022-10-30T14:33:47.909Z,77.79
2022-10-30T14:36:24.190Z,79.67
2022-10-30T14:39:26.414Z,81.64
2022-10-30T14:41:58.779Z,83.17
2022-10-30T14:44:28.358Z,84.61
2022-10-30T14:47:03.995Z,86.02
2022-10-30T14:49:57.722Z,86.29
2022-10-30T14:52:37.630Z,86.94
2022-10-30T14:55:25.625Z,87.54
2022-10-30T14:57:53.137Z,87.22
2022-10-30T15:00:22.537Z,88.03
2022-10-30T15:03:15.996Z,88.81
2022-10-30T15:05:58.642Z,89.79
2022-10-30T15:08:44.868Z,90.22
2022-10-30T15:11:20.471Z,91.01
2022-10-30T15:13:49.557Z,91.05
2022-10-30T15:16:18.382Z,91.37
2022-10-30T15:18:53.091Z,91.85
2022-10-30T15:21:25.199Z,92.60
2022-10-30T15:23:55.158Z,93.86
2022-10-30T15:26:23.115Z,96.16
2022-10-30T15:28:50.804Z,98.45
2022-10-30T15:31:17.162Z,98.57
2022-10-30T15:33:44.303Z,98.50
2022-10-30T15:36:21.901Z,98.52
2022-10-30T15:39:10.662Z,98.37
2022-10-30T15:41:58.357Z,98.87
2022-10-30T15:44:30.629Z,99.92
2022-10-30T15:46:58.196Z,100.00
2022-10-30T15:49:32.229Z,100.00
2022-10-30T15:51:59.811Z,100.00
2022-10-30T15:54:26.933Z,100.00
2022-10-30T15:57:31.421Z,100.00
2022-10-30T15:59:50.459Z,100.00
2022-10-30T16:02:22.335Z,100.00
2022-10-30T16:04:49.048Z,100.00
2022-10-30T16:07:24.451Z,100.00
2022-10-30T16:10:09.067Z,100.00
2022-10-30T16:12:35.668Z,100.00
2022-10-30T16:15:27.312Z,100.00
2022-10-30T16:18:26.956Z,100.00
2022-10-30T16:20:55.791Z,100.00
2022-10-30T16:23:22.940Z,100.00
2022-10-30T16:25:59.796Z,100.00
2022-10-30T16:28:35.275Z,100.00
2022-10-30T16:31:04.889Z,100.00
2022-10-30T16:33:33.297Z,100.00
2022-10-30T16:36:00.364Z,100.00
2022-10-30T16:38:29.027Z,100.00
2022-10-30T16:40:56.344Z,100.00
2022-10-30T16:43:29.606Z,100.00
2022-10-30T16:46:04.802Z,100.00
2022-10-30T16:48:35.361Z,100.00
2022-10-30T16:51:03.179Z,100.00
2022-10-30T16:53:29.921Z,100.00
2022-10-30T16:55:57.812Z,100.00
2022-10-30T16:58:28.046Z,100.00
2022-10-30T17:00:57.064Z,100.00
2022-10-30T17:03:26.483Z,100.00
2022-10-30T17:06:00.991Z,100.00
2022-10-30T17:08:33.098Z,100.00
2022-10-30T17:11:01.954Z,100.00
2022-10-30T17:13:37.009Z,100.00
2022-10-30T17:16:24.816Z,100.00
2022-10-30T17:18:52.877Z,100.00
2022-10-30T17:21:26.169Z,100.00
2022-10-30T17:23:58.325Z,100.00
2022-10-30T17:26:26.236Z,100.00
2022-10-30T17:28:52.871Z,100.00
2022-10-30T17:31:35.919Z,100.00
2022-10-30T17:34:19.051Z,100.00
2022-10-30T17:36:46.581Z,100.00
2022-10-30T17:39:13.584Z,100.00
2022-10-30T17:41:40.354Z,100.00
2022-10-30T17:44:07.865Z,100.00
2022-10-30T17:46:34.398Z,100.00
2022-10-30T17:49:01.565Z,100.00
2022-10-30T17:51:29.167Z,100.00
2022-10-30T17:53:55.631Z,100.00
2022-10-30T17:56:27.823Z,100.00
2022-10-30T17:58:54.603Z,100.00
2022-10-30T18:01:26.474Z,100.00
2022-10-30T18:03:55.169Z,100.00
2022-10-30T18:06:24.084Z,100.00
2022-10-30T18:08:51.102Z,100.00
2022-10-30T18:11:21.990Z,100.00
2022-10-30T18:13:49.531Z,100.00
2022-10-30T18:16:18.482Z,100.00
2022-10-30T18:18:45.467Z,100.00
2022-10-30T18:21:13.699Z,100.00
2022-10-30T18:23:52.472Z,100.00
2022-10-30T18:26:26.115Z,100.00
2022-10-30T18:28:53.116Z,100.00
2022-10-30T18:31:21.865Z,100.00
2022-10-30T18:33:48.686Z,100.00
2022-10-30T18:36:20.068Z,100.00
2022-10-30T18:38:46.554Z,100.00
2022-10-30T18:41:15.379Z,100.00
2022-10-30T18:43:45.648Z,100.00
2022-10-30T18:46:13.670Z,100.00
2022-10-30T18:48:40.109Z,100.00
2022-10-30T18:51:07.509Z,100.00
2022-10-30T18:53:35.368Z,100.00
2022-10-30T18:56:02.014Z,100.00
2022-10-30T18:58:28.722Z,100.00
2022-10-30T19:01:12.334Z,100.00
2022-10-30T19:03:39.395Z,100.00
2022-10-30T19:06:10.062Z,100.00
2022-10-30T19:08:36.528Z,100.00
2022-10-30T19:11:02.995Z,100.00
2022-10-30T19:13:29.537Z,100.00
2022-10-30T19:16:00.356Z,100.00
2022-10-30T19:18:28.344Z,100.00
2022-10-30T19:21:15.793Z,100.00
2022-10-30T19:23:41.803Z,100.00
2022-10-30T19:26:08.339Z,100.00
2022-10-30T19:28:35.197Z,100.00
2022-10-30T19:31:01.804Z,100.00
2022-10-30T19:33:28.352Z,100.00
2022-10-30T19:35:57.111Z,100.00
2022-10-30T19:38:23.905Z,100.00
2022-10-30T19:40:50.653Z,100.00
2022-10-30T19:43:17.144Z,100.00
2022-10-30T19:45:43.601Z,100.00
2022-10-30T19:48:17.670Z,100.00
2022-10-30T19:50:47.731Z,100.00
2022-10-30T19:53:14.558Z,100.00
2022-10-30T19:55:42.047Z,100.00
2022-10-30T19:58:12.347Z,100.00
2022-10-30T20:00:40.303Z,100.00
2022-10-30T20:03:07.354Z,100.00
2022-10-30T20:05:39.210Z,100.00
2022-10-30T20:08:23.169Z,100.00
2022-10-30T20:10:56.558Z,100.00
2022-10-30T20:13:24.212Z,100.00
2022-10-30T20:15:51.815Z,100.00
2022-10-30T20:18:24.101Z,100.00
2022-10-30T20:20:52.510Z,100.00
2022-10-30T20:23:22.678Z,100.00
2022-10-30T20:25:51.894Z,100.00
2022-10-30T20:28:24.827Z,100.00
2022-10-30T20:30:52.269Z,100.00
2022-10-30T20:33:19.461Z,100.00
2022-10-30T20:35:47.209Z,100.00
2022-10-30T20:38:19.593Z,100.00
2022-10-30T20:40:47.546Z,100.00
2022-10-30T20:43:16.385Z,100.00
2022-10-30T20:45:43.313Z,100.00
2022-10-30T20:48:09.866Z,100.00
2022-10-30T20:50:36.328Z,100.00
2022-10-30T20:53:02.802Z,100.00
2022-10-30T20:55:30.296Z,100.00
2022-10-30T20:57:56.958Z,100.00
2022-10-30T21:00:27.586Z,100.00
2022-10-30T21:02:54.092Z,100.00
2022-10-30T21:05:42.819Z,100.00
2022-10-30T21:08:07.047Z,100.00
2022-10-30T21:10:33.648Z,100.00
2022-10-30T21:13:03.535Z,100.00
2022-10-30T21:15:38.178Z,100.00
2022-10-30T21:18:04.654Z,100.00
2022-10-30T21:20:31.221Z,100.00
2022-10-30T21:22:57.724Z,100.00
2022-10-30T21:25:24.200Z,100.00
2022-10-30T21:27:50.723Z,100.00
2022-10-30T21:30:17.225Z,100.00
2022-10-30T21:32:43.721Z,100.00
2022-10-30T21:35:10.186Z,100.00
2022-10-30T21:37:36.645Z,100.00
2022-10-30T21:40:04.896Z,100.00
2022-10-30T21:42:31.736Z,100.00
2022-10-30T21:44:58.439Z,100.00
2022-10-30T21:47:25.015Z,100.00
2022-10-30T21:49:51.466Z,100.00
2022-10-30T21:52:18.889Z,100.00
2022-10-30T21:54:45.418Z,100.00
2022-10-30T21:57:11.918Z,100.00
2022-10-30T21:59:38.415Z,100.00
2022-10-30T22:02:04.906Z,100.00
2022-10-30T22:04:32.885Z,100.00
2022-10-30T22:06:59.402Z,100.00
2022-10-30T22:09:25.876Z,100.00
2022-10-30T22:11:52.329Z,100.00
2022-10-30T22:14:21.545Z,100.00
2022-10-30T22:16:51.191Z,100.00
2022-10-30T22:19:17.640Z,100.00
2022-10-30T22:21:44.090Z,100.00
2022-10-30T22:24:12.919Z,100.00
2022-10-30T22:26:39.414Z,100.00
2022-10-30T22:29:05.871Z,100.00
2022-10-30T22:34:25.625Z,100.00
2022-10-30T22:36:52.094Z,100.00
2022-10-30T22:39:18.566Z,100.00
2022-10-30T22:41:45.032Z,100.00
2022-10-30T22:44:19.973Z,100.00
2022-10-30T22:46:46.462Z,100.00
2022-10-30T22:49:12.918Z,100.00
2022-10-30T22:51:39.907Z,100.00
2022-10-30T22:54:09.791Z,100.00
2022-10-30T22:56:36.894Z,100.00
2022-10-30T22:59:08.470Z,100.00
2022-10-30T23:01:48.574Z,100.00
2022-10-30T23:04:52.064Z,100.00
2022-10-30T23:07:21.481Z,100.00
2022-10-30T23:10:01.366Z,100.00
2022-10-30T23:12:52.822Z,100.00
2022-10-30T23:15:36.998Z,100.00
2022-10-30T23:18:04.403Z,100.00
2022-10-30T23:20:44.881Z,100.00
2022-10-30T23:23:11.531Z,100.00
2022-10-30T23:25:38.251Z,100.00
2022-10-30T23:28:06.326Z,100.00
2022-10-30T23:30:32.900Z,100.00
2022-10-30T23:32:59.793Z,100.00
2022-10-30T23:35:26.558Z,100.00
2022-10-30T23:37:53.389Z,100.00
2022-10-30T23:40:20.390Z,100.00
2022-10-30T23:42:46.858Z,100.00
2022-10-30T23:45:14.975Z,100.00
2022-10-30T23:47:42.840Z,100.00
2022-10-30T23:50:10.733Z,100.00
2022-10-30T23:52:37.207Z,100.00
2022-10-30T23:55:03.966Z,100.00
2022-10-30T23:57:30.439Z,100.00
2022-10-30T23:59:56.890Z,100.00
